Time;durP1;ratioP1;P1;durP2;ratioP2;P2;SDS_P1;SDS_P2;PMS_P1;PMS_P2;Temp;Humidity;BMP_temperature;BMP_pressure;BME280_temperature;BME280_humidity;BME280_pressure;Samples;Min_cycle;Max_cycle;Signal;HPM_P1;HPM_P2
2022/11/18 00:01:22;;;;;;;5.50;2.50;;;;;;;-141.59;100.00;61776.25;5090932;28;20227;-79
2022/11/18 00:03:50;;;;;;;5.27;2.33;;;;;;;-141.59;100.00;61776.25;5081379;28;20280;-79
2022/11/18 00:06:19;;;;;;;3.97;2.60;;;;;;;-141.59;100.00;61776.25;5080489;28;20201;-79
2022/11/18 00:08:48;;;;;;;4.10;2.67;;;;;;;-141.59;100.00;61776.25;5082375;28;20208;-78
2022/11/18 00:14:22;;;;;;;4.53;2.70;;;;;;;-141.59;100.00;61776.25;5082206;28;20197;-79
2022/11/18 00:16:52;;;;;;;4.27;2.90;;;;;;;-141.59;100.00;61776.25;5078027;28;20282;-79
2022/11/18 00:19:20;;;;;;;4.43;2.50;;;;;;;-141.59;100.00;61776.25;5095249;28;20204;-79
2022/11/18 00:21:48;;;;;;;4.40;2.87;;;;;;;-141.59;100.00;61776.25;5101420;28;20199;-79
2022/11/18 00:24:16;;;;;;;3.87;2.73;;;;;;;-141.59;100.00;61776.25;5077607;28;20231;-79
2022/11/18 00:26:43;;;;;;;3.97;3.00;;;;;;;-141.59;100.00;61776.25;5094629;28;20274;-79
2022/11/18 00:29:13;;;;;;;5.70;3.00;;;;;;;-141.59;100.00;61776.25;5083367;28;20203;-79
2022/11/18 00:31:40;;;;;;;5.70;2.73;;;;;;;-141.59;100.00;61776.25;5088848;28;20224;-79
2022/11/18 00:34:07;;;;;;;3.03;2.40;;;;;;;-141.59;100.00;61776.25;5087713;28;20196;-79
2022/11/18 00:36:34;;;;;;;4.47;2.50;;;;;;;-141.59;100.00;61776.25;5082777;28;20256;-79
2022/11/18 00:39:02;;;;;;;3.23;2.60;;;;;;;-141.59;100.00;61776.25;5080791;28;20200;-79
2022/11/18 00:44:12;;;;;;;5.13;2.67;;;;;;;-141.59;100.00;61776.25;5078888;28;20204;-79
2022/11/18 00:46:39;;;;;;;4.10;2.87;;;;;;;-141.59;100.00;61776.25;5101382;28;20195;-79
2022/11/18 00:49:07;;;;;;;3.23;2.50;;;;;;;-141.59;100.00;61776.25;5077307;28;20211;-79
2022/11/18 00:51:38;;;;;;;4.10;2.60;;;;;;;-141.59;100.00;61776.25;5089893;28;20199;-79
2022/11/18 00:54:06;;;;;;;3.60;2.60;;;;;;;-141.59;100.00;61776.25;5085128;28;20215;-79
2022/11/18 00:56:33;;;;;;;4.77;2.63;;;;;;;-141.59;100.00;61776.25;5079927;28;20213;-79
2022/11/18 00:59:00;;;;;;;4.47;2.80;;;;;;;-141.59;100.00;61776.25;5087439;28;20200;-79
2022/11/18 01:01:28;;;;;;;3.40;2.63;;;;;;;-141.59;100.00;61776.25;5077844;28;20204;-79
2022/11/18 01:03:56;;;;;;;3.73;2.53;;;;;;;-141.59;100.00;61776.25;5079192;28;20213;-79
2022/11/18 01:06:23;;;;;;;3.97;2.67;;;;;;;-141.59;100.00;61776.25;5085566;28;20200;-79
2022/11/18 01:08:51;;;;;;;5.87;2.80;;;;;;;-141.59;100.00;61776.25;5083715;28;20229;-79
2022/11/18 01:14:02;;;;;;;4.23;2.67;;;;;;;-141.59;100.00;61776.25;5086698;28;20204;-79
2022/11/18 01:16:32;;;;;;;4.73;2.73;;;;;;;-141.59;100.00;61776.25;5094694;27;20213;-79
2022/11/18 01:18:59;;;;;;;3.67;2.90;;;;;;;-141.59;100.00;61776.25;5099468;28;20196;-80
2022/11/18 01:21:26;;;;;;;4.57;3.13;;;;;;;-141.59;100.00;61776.25;5082168;28;20204;-79
2022/11/18 01:23:54;;;;;;;5.13;3.20;;;;;;;-141.59;100.00;61776.25;5075744;28;20204;-79
2022/11/18 01:26:21;;;;;;;4.33;2.80;;;;;;;-141.59;100.00;61776.25;5089081;28;20285;-79
2022/11/18 01:28:48;;;;;;;5.33;3.13;;;;;;;-141.59;100.00;61776.25;5074781;28;20208;-79
2022/11/18 01:31:16;;;;;;;3.93;2.93;;;;;;;-141.59;100.00;61776.25;5078506;28;20220;-79
2022/11/18 01:33:45;;;;;;;4.73;3.00;;;;;;;-141.59;100.00;61776.25;5085958;28;20279;-79
2022/11/18 01:36:18;;;;;;;3.57;1.90;;;;;;;-141.59;100.00;61776.25;5085869;28;20216;-79
2022/11/18 01:38:45;;;;;;;1.53;1.20;;;;;;;-141.59;100.00;61776.25;5081851;28;20212;-79
2022/11/18 01:41:13;;;;;;;2.17;1.07;;;;;;;-141.59;100.00;61776.25;5080704;28;20205;-79
2022/11/18 01:43:50;;;;;;;1.13;0.90;;;;;;;-141.59;100.00;61776.25;5071660;28;20197;-78
2022/11/18 01:46:17;;;;;;;0.60;0.60;;;;;;;-141.59;100.00;61776.25;5087170;28;20282;-78
2022/11/18 01:48:50;;;;;;;1.00;0.70;;;;;;;-141.59;100.00;61776.25;5073393;28;20193;-78
2022/11/18 01:51:20;;;;;;;1.70;0.67;;;;;;;-141.59;100.00;61776.25;5081307;28;20260;-78
2022/11/18 01:53:51;;;;;;;0.60;0.60;;;;;;;-141.59;100.00;61776.25;5084883;28;20208;-78
2022/11/18 01:56:23;;;;;;;0.60;0.60;;;;;;;-141.59;100.00;61776.25;5088125;28;20227;-78
2022/11/18 01:58:54;;;;;;;2.13;0.90;;;;;;;-141.59;100.00;61776.25;5076965;28;20249;-78
2022/11/18 02:01:21;;;;;;;1.63;0.80;;;;;;;-141.59;100.00;61776.25;5072914;28;20222;-77
2022/11/18 02:03:50;;;;;;;0.53;0.53;;;;;;;-141.59;100.00;61776.25;5092487;28;20204;-77
2022/11/18 02:06:18;;;;;;;0.70;0.70;;;;;;;-141.59;100.00;61776.25;5080098;28;20212;-78
2022/11/18 02:08:45;;;;;;;2.30;0.70;;;;;;;-141.59;100.00;61776.25;5078417;28;20223;-78
2022/11/18 02:13:55;;;;;;;0.50;0.50;;;;;;;-141.59;100.00;61776.25;5105643;28;20227;-78
2022/11/18 02:16:32;;;;;;;0.63;0.50;;;;;;;-141.59;100.00;61776.25;5087172;28;20216;-77
2022/11/18 02:19:07;;;;;;;1.47;0.80;;;;;;;-141.59;100.00;61776.25;5087167;28;20221;-77
2022/11/18 02:21:47;;;;;;;1.10;0.60;;;;;;;-141.59;100.00;61776.25;5099007;28;20208;-77
2022/11/18 02:24:40;;;;;;;0.70;0.70;;;;;;;-141.59;100.00;61776.25;5087367;28;20208;-77
2022/11/18 02:27:33;;;;;;;0.67;0.60;;;;;;;-141.59;100.00;61776.25;5082546;28;20288;-78
2022/11/18 02:30:07;;;;;;;0.70;0.60;;;;;;;-141.59;100.00;61776.25;5092841;28;20239;-77
2022/11/18 02:32:40;;;;;;;1.37;0.50;;;;;;;-141.59;100.00;61776.25;5082283;28;20204;-78
2022/11/18 02:35:16;;;;;;;0.47;0.47;;;;;;;-141.59;100.00;61776.25;5077548;28;20222;-78
2022/11/18 02:37:49;;;;;;;0.60;0.50;;;;;;;-141.59;100.00;61776.25;5096618;28;20196;-77
2022/11/18 02:40:23;;;;;;;0.60;0.60;;;;;;;-141.59;100.00;61776.25;5081543;28;20291;-78
2022/11/18 02:42:55;;;;;;;1.97;0.40;;;;;;;-141.59;100.00;61776.25;5094969;28;20243;-78
2022/11/18 02:45:26;;;;;;;1.80;0.50;;;;;;;-141.59;100.00;61776.25;5086127;28;20208;-78
2022/11/18 02:47:56;;;;;;;0.40;0.40;;;;;;;-141.59;100.00;61776.25;5086400;28;20205;-78
2022/11/18 02:50:27;;;;;;;0.60;0.60;;;;;;;-141.59;100.00;61776.25;5074596;28;20205;-78
2022/11/18 02:52:58;;;;;;;0.50;0.50;;;;;;;-141.59;100.00;61776.25;5090818;28;20305;-78
2022/11/18 02:55:28;;;;;;;0.40;0.40;;;;;;;-141.59;100.00;61776.25;5083588;28;20216;-78
2022/11/18 02:57:57;;;;;;;0.50;0.40;;;;;;;-141.59;100.00;61776.25;5082192;28;20211;-78
2022/11/18 03:00:25;;;;;;;0.40;0.40;;;;;;;-141.59;100.00;61776.25;5088618;28;20197;-78
2022/11/18 03:02:52;;;;;;;0.50;0.50;;;;;;;-141.59;100.00;61776.25;5101259;28;20193;-78
2022/11/18 03:05:27;;;;;;;0.50;0.50;;;;;;;-141.59;100.00;61776.25;5088659;28;20265;-78
2022/11/18 03:08:01;;;;;;;0.50;0.50;;;;;;;-141.59;100.00;61776.25;5083219;28;20196;-79
2022/11/18 03:10:36;;;;;;;2.10;0.57;;;;;;;-141.59;100.00;61776.25;5086288;28;20311;-78
2022/11/18 03:13:11;;;;;;;0.40;0.40;;;;;;;-141.59;100.00;61776.25;5078500;28;20211;-78
2022/11/18 03:15:49;;;;;;;0.60;0.60;;;;;;;-141.59;100.00;61776.25;5082927;28;20236;-79
2022/11/18 03:18:23;;;;;;;0.97;0.60;;;;;;;-141.59;100.00;61776.25;5081984;28;20274;-79
2022/11/18 03:20:56;;;;;;;0.60;0.60;;;;;;;-141.59;100.00;61776.25;5080643;28;20211;-79
2022/11/18 03:23:30;;;;;;;0.40;0.40;;;;;;;-141.59;100.00;61776.25;5087610;28;20238;-79
2022/11/18 03:26:02;;;;;;;0.50;0.50;;;;;;;-141.59;100.00;61776.25;5092614;28;20254;-78
2022/11/18 03:28:36;;;;;;;0.50;0.50;;;;;;;-141.59;100.00;61776.25;5103314;28;20189;-79
2022/11/18 03:31:10;;;;;;;1.60;0.50;;;;;;;-141.59;100.00;61776.25;5083239;28;20238;-79
2022/11/18 03:33:42;;;;;;;0.40;0.40;;;;;;;-141.59;100.00;61776.25;5098752;28;20291;-79
2022/11/18 03:36:12;;;;;;;0.50;0.50;;;;;;;-141.59;100.00;61776.25;5085784;28;20265;-79
2022/11/18 03:38:46;;;;;;;0.40;0.40;;;;;;;-141.59;100.00;61776.25;5085454;28;20233;-79
2022/11/18 03:41:16;;;;;;;1.10;0.67;;;;;;;-141.59;100.00;61776.25;5099523;28;20217;-79
2022/11/18 03:43:48;;;;;;;0.93;0.60;;;;;;;-141.59;100.00;61776.25;5076675;28;20193;-79
2022/11/18 03:46:20;;;;;;;0.50;0.40;;;;;;;-141.59;100.00;61776.25;5081069;28;20213;-79
2022/11/18 03:48:51;;;;;;;0.50;0.50;;;;;;;-141.59;100.00;61776.25;5084602;28;20303;-79
2022/11/18 03:51:23;;;;;;;0.40;0.40;;;;;;;-141.59;100.00;61776.25;5088419;28;20213;-78
2022/11/18 03:53:55;;;;;;;0.50;0.50;;;;;;;-141.59;100.00;61776.25;5083308;28;20204;-79
2022/11/18 03:56:26;;;;;;;0.67;0.67;;;;;;;-141.59;100.00;61776.25;5077743;28;20255;-78
2022/11/18 03:58:57;;;;;;;0.50;0.50;;;;;;;-141.59;100.00;61776.25;5076518;28;20193;-78
2022/11/18 04:01:31;;;;;;;1.83;0.70;;;;;;;-141.59;100.00;61776.25;5078007;28;20197;-78
2022/11/18 04:03:58;;;;;;;0.67;0.67;;;;;;;-141.59;100.00;61776.25;5093960;28;20235;-78
2022/11/18 04:06:33;;;;;;;0.50;0.50;;;;;;;-141.59;100.00;61776.25;5100545;28;20212;-78
2022/11/18 04:09:07;;;;;;;0.50;0.50;;;;;;;-141.59;100.00;61776.25;5086798;28;20200;-78
2022/11/18 04:14:26;;;;;;;1.40;0.60;;;;;;;-141.59;100.00;61776.25;5075505;28;20236;-78
2022/11/18 04:16:55;;;;;;;0.50;0.50;;;;;;;-141.59;100.00;61776.25;5095230;28;20216;-78
2022/11/18 04:19:22;;;;;;;0.60;0.60;;;;;;;-141.59;100.00;61776.25;5077383;28;20201;-78
2022/11/18 04:21:50;;;;;;;0.97;0.60;;;;;;;-141.59;100.00;61776.25;5095980;28;20201;-78
2022/11/18 04:24:17;;;;;;;1.27;0.60;;;;;;;-141.59;100.00;61776.25;5076333;28;20223;-78
2022/11/18 04:26:44;;;;;;;0.70;0.70;;;;;;;-141.59;100.00;61776.25;5074830;28;20210;-78
2022/11/18 04:29:11;;;;;;;0.87;0.70;;;;;;;-141.59;100.00;61776.25;5081085;28;20208;-78
2022/11/18 04:31:39;;;;;;;2.23;0.63;;;;;;;-141.59;100.00;61776.25;5074675;28;20225;-78
2022/11/18 04:34:07;;;;;;;0.97;0.63;;;;;;;-141.59;100.00;61776.25;5080618;28;20196;-78
2022/11/18 04:36:34;;;;;;;1.10;0.70;;;;;;;-141.59;100.00;61776.25;5094896;28;20231;-78
2022/11/18 04:39:01;;;;;;;1.77;0.70;;;;;;;-141.59;100.00;61776.25;5080741;28;20268;-78
2022/11/18 04:44:11;;;;;;;1.00;0.73;;;;;;;-141.59;100.00;61776.25;5073028;28;20210;-78
2022/11/18 04:46:40;;;;;;;1.53;0.90;;;;;;;-141.59;100.00;61776.25;5077711;28;20242;-78
2022/11/18 04:49:09;;;;;;;0.87;0.73;;;;;;;-141.59;100.00;61776.25;5074789;28;20501;-78
2022/11/18 04:51:37;;;;;;;0.63;0.60;;;;;;;-141.59;100.00;61776.25;5080428;28;20196;-78
2022/11/18 04:54:04;;;;;;;0.60;0.60;;;;;;;-141.59;100.00;61776.25;5078621;28;20201;-78
2022/11/18 04:56:31;;;;;;;0.77;0.70;;;;;;;-141.59;100.00;61776.25;5077663;28;20214;-78
2022/11/18 04:58:59;;;;;;;1.30;0.80;;;;;;;-141.59;100.00;61776.25;5085029;28;20250;-78
2022/11/18 05:01:27;;;;;;;0.53;0.53;;;;;;;-141.59;100.00;61776.25;5078456;28;20197;-78
2022/11/18 05:03:54;;;;;;;1.40;1.00;;;;;;;-141.59;100.00;61776.25;5074489;28;20205;-78
2022/11/18 05:06:23;;;;;;;0.80;0.80;;;;;;;-141.59;100.00;61776.25;5076750;28;20205;-78
2022/11/18 05:08:51;;;;;;;1.70;0.80;;;;;;;-141.59;100.00;61776.25;5083987;28;20200;-78
2022/11/18 05:14:02;;;;;;;0.50;0.50;;;;;;;-141.59;100.00;61776.25;5082478;28;20216;-78
2022/11/18 05:16:29;;;;;;;1.87;0.90;;;;;;;-141.59;100.00;61776.25;5076892;28;20217;-78
2022/11/18 05:18:56;;;;;;;2.40;1.40;;;;;;;-141.59;100.00;61776.25;5078158;28;20288;-79
2022/11/18 05:21:25;;;;;;;1.20;1.10;;;;;;;-141.59;100.00;61776.25;5071331;28;20212;-79
2022/11/18 05:23:52;;;;;;;1.50;1.13;;;;;;;-141.59;100.00;61776.25;5086083;28;20258;-79
2022/11/18 05:26:19;;;;;;;2.07;0.90;;;;;;;-141.59;100.00;61776.25;5100759;28;20189;-78
2022/11/18 05:28:46;;;;;;;1.50;1.40;;;;;;;-141.59;100.00;61776.25;5083063;28;20283;-78
2022/11/18 05:31:15;;;;;;;1.77;1.40;;;;;;;-141.59;100.00;61776.25;5085848;28;20224;-79
2022/11/18 05:33:43;;;;;;;1.40;1.30;;;;;;;-141.59;100.00;61776.25;5098830;28;20204;-78
2022/11/18 05:36:13;;;;;;;2.43;1.40;;;;;;;-141.59;100.00;61776.25;5076440;28;20274;-79
2022/11/18 05:38:41;;;;;;;2.27;1.40;;;;;;;-141.59;100.00;61776.25;5105193;28;20253;-79
2022/11/18 05:41:09;;;;;;;2.60;1.30;;;;;;;-141.59;100.00;61776.25;5075270;28;20200;-79
2022/11/18 05:43:36;;;;;;;1.33;1.00;;;;;;;-141.59;100.00;61776.25;5098928;28;20197;-79
2022/11/18 05:46:04;;;;;;;2.10;1.20;;;;;;;-141.59;100.00;61776.25;5081401;28;20365;-79
2022/11/18 05:48:31;;;;;;;7.63;2.87;;;;;;;-141.59;100.00;61776.25;5093362;28;20241;-79
2022/11/18 05:50:58;;;;;;;2.00;1.40;;;;;;;-141.59;100.00;61776.25;5077828;28;20235;-79
2022/11/18 05:53:25;;;;;;;1.30;1.20;;;;;;;-141.59;100.00;61776.25;5074008;28;20207;-79
2022/11/18 05:55:56;;;;;;;4.17;2.90;;;;;;;-141.59;100.00;61776.25;5079086;28;20204;-79
2022/11/18 05:58:23;;;;;;;5.73;1.83;;;;;;;-141.59;100.00;61776.25;5072812;28;20269;-79
2022/11/18 06:00:54;;;;;;;1.90;1.50;;;;;;;-141.59;100.00;61776.25;5076374;28;20204;-79
2022/11/18 06:03:26;;;;;;;3.70;1.10;;;;;;;-141.59;100.00;61776.25;5101393;28;20193;-79
2022/11/18 06:05:54;;;;;;;0.93;0.90;;;;;;;-141.59;100.00;61776.25;5100204;28;20204;-79
2022/11/18 06:08:24;;;;;;;1.23;0.80;;;;;;;-141.59;100.00;61776.25;5082132;28;20197;-79
2022/11/18 06:10:53;;;;;;;0.80;0.80;;;;;;;-141.59;100.00;61776.25;5077324;28;20220;-79
2022/11/18 06:13:26;;;;;;;2.03;1.37;;;;;;;-141.59;100.00;61776.25;5078823;28;20203;-78
2022/11/18 06:15:53;;;;;;;3.20;1.40;;;;;;;-141.59;100.00;61776.25;5093200;28;20261;-78
2022/11/18 06:18:24;;;;;;;2.53;1.40;;;;;;;-141.59;100.00;61776.25;5080620;28;20208;-79
2022/11/18 06:20:55;;;;;;;2.17;1.60;;;;;;;-141.59;100.00;61776.25;5076104;28;20218;-78
2022/11/18 06:23:23;;;;;;;2.83;1.70;;;;;;;-141.59;100.00;61776.25;5070781;28;20200;-78
2022/11/18 06:25:50;;;;;;;2.37;1.90;;;;;;;-141.59;100.00;61776.25;5097224;28;20188;-78
2022/11/18 06:28:20;;;;;;;3.97;1.50;;;;;;;-141.59;100.00;61776.25;5085705;28;20200;-78
2022/11/18 06:30:48;;;;;;;1.67;1.40;;;;;;;-141.59;100.00;61776.25;5078074;28;20296;-78
2022/11/18 06:33:16;;;;;;;1.80;1.50;;;;;;;-141.59;100.00;61776.25;5072132;28;20213;-78
2022/11/18 06:35:43;;;;;;;1.80;1.43;;;;;;;-141.59;100.00;61776.25;5070027;28;20213;-78
2022/11/18 06:38:10;;;;;;;5.33;1.93;;;;;;;-141.59;100.00;61776.25;5076508;28;20247;-78
2022/11/18 06:40:37;;;;;;;3.40;1.80;;;;;;;-141.59;100.00;61776.25;5074910;28;20200;-78
2022/11/18 06:48:43;;;;;;;2.07;1.40;;;;;;;-141.59;100.00;61776.25;5078799;28;20216;-77
2022/11/18 06:51:11;;;;;;;3.73;1.77;;;;;;;-141.59;100.00;61776.25;5077549;28;20276;-77
2022/11/18 06:53:38;;;;;;;2.37;1.90;;;;;;;-141.59;100.00;61776.25;5069129;28;20208;-77
2022/11/18 06:56:08;;;;;;;1.87;1.40;;;;;;;-141.59;100.00;61776.25;5070794;28;20197;-78
2022/11/18 06:58:36;;;;;;;1.00;1.00;;;;;;;-141.59;100.00;61776.25;5071215;28;20308;-77
2022/11/18 07:01:11;;;;;;;1.40;0.80;;;;;;;-141.59;100.00;61776.25;5084047;28;20201;-77
2022/11/18 07:03:38;;;;;;;1.77;0.80;;;;;;;-141.59;100.00;61776.25;5075569;28;20219;-77
2022/11/18 07:06:06;;;;;;;3.13;1.00;;;;;;;-141.59;100.00;61776.25;5074115;28;20209;-77
2022/11/18 07:08:35;;;;;;;1.20;1.00;;;;;;;-141.59;100.00;61776.25;5093534;28;20209;-77
2022/11/18 07:11:04;;;;;;;1.50;1.17;;;;;;;-141.59;100.00;61776.25;5075024;28;20213;-78
2022/11/18 07:13:31;;;;;;;1.73;1.40;;;;;;;-141.59;100.00;61776.25;5077947;28;20247;-78
2022/11/18 07:16:03;;;;;;;2.03;1.00;;;;;;;-141.59;100.00;61776.25;5078710;28;20263;-77
2022/11/18 07:18:32;;;;;;;1.03;1.00;;;;;;;-141.59;100.00;61776.25;5078552;28;20293;-77
2022/11/18 07:21:02;;;;;;;3.23;0.90;;;;;;;-141.59;100.00;61776.25;5076739;28;20227;-77
2022/11/18 07:23:30;;;;;;;3.07;1.83;;;;;;;-141.59;100.00;61776.25;5092781;28;20196;-77
2022/11/18 07:25:57;;;;;;;2.43;1.50;;;;;;;-141.59;100.00;61776.25;5074378;28;20201;-77
2022/11/18 07:28:24;;;;;;;2.67;1.77;;;;;;;-141.59;100.00;61776.25;5072953;28;20206;-78
2022/11/18 07:30:52;;;;;;;0.67;0.67;;;;;;;-141.59;100.00;61776.25;5075895;28;20237;-77
2022/11/18 07:33:19;;;;;;;2.47;1.00;;;;;;;-141.59;100.00;61776.25;5090091;28;20197;-77
2022/11/18 07:35:47;;;;;;;1.47;0.80;;;;;;;-141.59;100.00;61776.25;5074965;28;20205;-77
2022/11/18 07:38:14;;;;;;;2.07;0.80;;;;;;;-141.59;100.00;61776.25;5074829;28;20232;-77
2022/11/18 07:40:42;;;;;;;1.20;1.10;;;;;;;-141.59;100.00;61776.25;5078934;28;20199;-77
2022/11/18 07:43:09;;;;;;;0.60;0.60;;;;;;;-141.59;100.00;61776.25;5081634;28;20208;-77
2022/11/18 07:45:36;;;;;;;2.10;0.70;;;;;;;-141.59;100.00;61776.25;5074790;28;20203;-78
2022/11/18 07:48:04;;;;;;;1.07;0.70;;;;;;;-141.59;100.00;61776.25;5074528;28;20197;-78
2022/11/18 07:50:31;;;;;;;3.00;0.77;;;;;;;-141.59;100.00;61776.25;5085712;28;20258;-78
2022/11/18 07:52:59;;;;;;;1.93;0.80;;;;;;;-141.59;100.00;61776.25;5083465;28;20193;-77
2022/11/18 07:55:27;;;;;;;0.60;0.60;;;;;;;-141.59;100.00;61776.25;5073478;28;20194;-76
2022/11/18 07:57:56;;;;;;;1.23;0.70;;;;;;;-141.59;100.00;61776.25;5076250;28;20229;-77
2022/11/18 08:00:23;;;;;;;0.70;0.70;;;;;;;-141.59;100.00;61776.25;5067892;28;20205;-76
2022/11/18 08:02:50;;;;;;;1.00;0.80;;;;;;;-141.59;100.00;61776.25;5076632;28;20264;-77
2022/11/18 08:05:17;;;;;;;0.80;0.80;;;;;;;-141.59;100.00;61776.25;5076099;28;20209;-77
2022/11/18 08:07:44;;;;;;;0.70;0.70;;;;;;;-141.59;100.00;61776.25;5082467;28;20201;-77
2022/11/18 08:10:13;;;;;;;0.80;0.80;;;;;;;-141.59;100.00;61776.25;5083645;28;20213;-76
2022/11/18 08:12:40;;;;;;;0.80;0.80;;;;;;;-141.59;100.00;61776.25;5087477;28;20254;-77
2022/11/18 08:15:08;;;;;;;3.07;1.70;;;;;;;-141.59;100.00;61776.25;5079865;28;20204;-78
2022/11/18 08:17:36;;;;;;;1.50;1.20;;;;;;;-141.59;100.00;61776.25;5073723;28;20232;-76
2022/11/18 08:20:03;;;;;;;1.87;1.00;;;;;;;-141.59;100.00;61776.25;5089317;28;20197;-76
2022/11/18 08:22:30;;;;;;;2.93;1.10;;;;;;;-141.59;100.00;61776.25;5077373;28;20213;-76
2022/11/18 08:24:57;;;;;;;2.33;1.43;;;;;;;-141.59;100.00;61776.25;5079190;28;20212;-76
2022/11/18 08:27:25;;;;;;;5.27;1.20;;;;;;;-141.59;100.00;61776.25;5077377;28;20201;-76
2022/11/18 08:29:52;;;;;;;1.60;1.00;;;;;;;-141.59;100.00;61776.25;5082201;28;20194;-75
2022/11/18 08:32:19;;;;;;;1.97;1.20;;;;;;;-141.59;100.00;61776.25;5093796;28;20208;-75
2022/11/18 08:34:46;;;;;;;1.77;1.10;;;;;;;-141.59;100.00;61776.25;5083283;28;20208;-75
2022/11/18 08:37:13;;;;;;;2.07;1.13;;;;;;;-141.59;100.00;61776.25;5084151;28;20254;-75
2022/11/18 08:39:41;;;;;;;6.57;2.90;;;;;;;-141.59;100.00;61776.25;5077326;28;20201;-75
2022/11/18 08:42:09;;;;;;;1.60;1.50;;;;;;;-141.59;100.00;61776.25;5091335;28;20294;-75
2022/11/18 08:44:37;;;;;;;1.73;1.00;;;;;;;-141.59;100.00;61776.25;5092068;28;20197;-76
2022/11/18 08:47:05;;;;;;;2.30;0.90;;;;;;;-141.59;100.00;61776.25;5092172;28;20196;-76
2022/11/18 08:49:32;;;;;;;0.80;0.80;;;;;;;-141.59;100.00;61776.25;5090471;28;20201;-75
2022/11/18 08:51:59;;;;;;;1.13;1.00;;;;;;;-141.59;100.00;61776.25;5082479;28;20207;-75
2022/11/18 08:54:26;;;;;;;1.07;1.00;;;;;;;-141.59;100.00;61776.25;5080352;28;20201;-75
2022/11/18 08:56:53;;;;;;;2.17;1.03;;;;;;;-141.59;100.00;61776.25;5080227;28;20336;-75
2022/11/18 08:59:20;;;;;;;1.40;1.20;;;;;;;-141.59;100.00;61776.25;5099067;28;20193;-75
2022/11/18 09:01:49;;;;;;;3.30;2.33;;;;;;;-141.59;100.00;61776.25;5079080;28;20205;-75
2022/11/18 09:04:15;;;;;;;3.37;2.17;;;;;;;-141.59;100.00;61776.25;5081152;28;20204;-75
2022/11/18 09:06:43;;;;;;;3.40;2.77;;;;;;;-141.59;100.00;61776.25;5077613;28;20193;-75
2022/11/18 09:09:10;;;;;;;1.80;1.40;;;;;;;-141.59;100.00;61776.25;5088606;28;20196;-76
2022/11/18 09:11:39;;;;;;;1.23;1.10;;;;;;;-141.59;100.00;61776.25;5087667;28;20216;-76
2022/11/18 09:14:11;;;;;;;1.47;1.30;;;;;;;-141.59;100.00;61776.25;5083470;28;20197;-75
2022/11/18 09:16:39;;;;;;;2.43;1.60;;;;;;;-141.59;100.00;61776.25;5090053;28;20292;-77
2022/11/18 09:19:07;;;;;;;3.03;1.43;;;;;;;-141.59;100.00;61776.25;5078256;28;20212;-79
2022/11/18 09:21:34;;;;;;;1.57;1.10;;;;;;;-141.59;100.00;61776.25;5092626;28;20205;-78
2022/11/18 09:24:07;;;;;;;1.63;1.33;;;;;;;-141.59;100.00;61776.25;5091302;28;20196;-79
2022/11/18 09:26:35;;;;;;;4.30;1.53;;;;;;;-141.59;100.00;61776.25;5087265;28;20205;-78
2022/11/18 09:29:02;;;;;;;3.30;1.73;;;;;;;-141.59;100.00;61776.25;5089684;28;20197;-78
2022/11/18 09:31:29;;;;;;;1.33;1.20;;;;;;;-141.59;100.00;61776.25;5091041;28;20220;-78
2022/11/18 09:33:58;;;;;;;2.50;1.97;;;;;;;-141.59;100.00;61776.25;5081744;28;20205;-78
2022/11/18 09:36:27;;;;;;;3.60;2.10;;;;;;;-141.59;100.00;61776.25;5074770;28;20257;-79
2022/11/18 09:38:54;;;;;;;3.27;2.13;;;;;;;-141.59;100.00;61776.25;5072260;28;20216;-78
2022/11/18 09:41:35;;;;;;;1.50;1.40;;;;;;;-141.59;100.00;61776.25;5082933;28;20293;-79
2022/11/18 09:44:13;;;;;;;3.00;1.60;;;;;;;-141.59;100.00;61776.25;5071621;28;20292;-79
2022/11/18 09:46:54;;;;;;;4.17;2.97;;;;;;;-141.59;100.00;61776.25;5098216;28;20212;-80
2022/11/18 09:49:26;;;;;;;3.60;2.33;;;;;;;-141.59;100.00;61776.25;5092649;28;20286;-78
2022/11/18 09:51:55;;;;;;;2.30;1.83;;;;;;;-141.59;100.00;61776.25;5072861;28;20209;-79
2022/11/18 09:54:24;;;;;;;3.20;1.90;;;;;;;-141.59;100.00;61776.25;5080665;28;20211;-78
2022/11/18 09:56:55;;;;;;;3.37;2.03;;;;;;;-141.59;100.00;61776.25;5078333;28;20218;-78
2022/11/18 09:59:24;;;;;;;2.17;1.80;;;;;;;-141.59;100.00;61776.25;5084901;28;20219;-79
2022/11/18 10:01:55;;;;;;;2.73;1.70;;;;;;;-141.59;100.00;61776.25;5073636;28;20203;-79
2022/11/18 10:04:22;;;;;;;1.83;1.53;;;;;;;-141.59;100.00;61776.25;5078499;28;20200;-79
2022/11/18 10:06:51;;;;;;;3.40;2.00;;;;;;;-141.59;100.00;61776.25;5092983;28;20201;-79
2022/11/18 10:09:30;;;;;;;2.17;1.60;;;;;;;-141.59;100.00;61776.25;5105838;28;20208;-80
2022/11/18 10:12:21;;;;;;;3.33;2.50;;;;;;;-141.59;100.00;61776.25;5098022;28;20210;-79
2022/11/18 10:15:08;;;;;;;1.50;1.40;;;;;;;-141.59;100.00;61776.25;5076429;28;20200;-79
2022/11/18 10:17:51;;;;;;;1.20;1.10;;;;;;;-141.59;100.00;61776.25;5085467;28;20212;-79
2022/11/18 10:20:26;;;;;;;2.13;1.50;;;;;;;-141.59;100.00;61776.25;5102547;28;20233;-79
2022/11/18 10:22:56;;;;;;;3.63;1.40;;;;;;;-141.59;100.00;61776.25;5072491;28;20329;-79
2022/11/18 10:25:25;;;;;;;4.83;1.50;;;;;;;-141.59;100.00;61776.25;5083302;28;20212;-79
2022/11/18 10:27:52;;;;;;;1.50;1.40;;;;;;;-141.59;100.00;61776.25;5092884;28;20212;-80
2022/11/18 10:30:21;;;;;;;2.17;1.80;;;;;;;-141.59;100.00;61776.25;5078304;28;20291;-79
2022/11/18 10:32:59;;;;;;;3.00;1.40;;;;;;;-141.59;100.00;61776.25;5076291;28;20215;-80
2022/11/18 10:35:29;;;;;;;3.23;1.60;;;;;;;-141.59;100.00;61776.25;5085140;28;20260;-79
2022/11/18 10:38:02;;;;;;;1.37;1.00;;;;;;;-141.59;100.00;61776.25;5080512;28;20228;-80
2022/11/18 10:40:32;;;;;;;2.43;1.30;;;;;;;-141.59;100.00;61776.25;5092123;28;20290;-79
2022/11/18 10:42:59;;;;;;;2.50;1.10;;;;;;;-141.59;100.00;61776.25;5076940;28;20196;-80
2022/11/18 10:45:29;;;;;;;1.43;1.03;;;;;;;-141.59;100.00;61776.25;5088140;28;20201;-79
2022/11/18 10:48:09;;;;;;;1.27;1.00;;;;;;;-141.59;100.00;61776.25;5081916;28;20204;-79
2022/11/18 10:50:37;;;;;;;4.00;2.40;;;;;;;-141.59;100.00;61776.25;5083707;28;20204;-80
2022/11/18 10:53:06;;;;;;;1.87;1.43;;;;;;;-141.59;100.00;61776.25;5087988;28;20208;-77
2022/11/18 10:55:34;;;;;;;2.40;1.70;;;;;;;-141.59;100.00;61776.25;5083801;28;20218;-78
2022/11/18 10:58:08;;;;;;;3.87;0.80;;;;;;;-141.59;100.00;61776.25;5078537;28;20221;-77
2022/11/18 11:00:44;;;;;;;0.50;0.50;;;;;;;-141.59;100.00;61776.25;5095069;28;20279;-78
2022/11/18 11:03:40;;;;;;;0.60;0.60;;;;;;;-141.59;100.00;61776.25;5106076;28;20299;-77
2022/11/18 11:06:32;;;;;;;0.70;0.70;;;;;;;-141.59;100.00;61776.25;5087429;28;20197;-77
2022/11/18 11:09:03;;;;;;;1.30;0.60;;;;;;;-141.59;100.00;61776.25;5086151;28;20238;-77
2022/11/18 11:11:33;;;;;;;0.90;0.80;;;;;;;-141.59;100.00;61776.25;5103059;28;20212;-77
2022/11/18 11:14:07;;;;;;;0.60;0.60;;;;;;;-141.59;100.00;61776.25;5085247;28;20204;-78
2022/11/18 11:16:44;;;;;;;2.27;0.80;;;;;;;-141.59;100.00;61776.25;5085186;28;20201;-77
2022/11/18 11:19:13;;;;;;;0.67;0.67;;;;;;;-141.59;100.00;61776.25;5096920;28;20306;-77
2022/11/18 11:21:40;;;;;;;0.93;0.63;;;;;;;-141.59;100.00;61776.25;5087723;28;20192;-77
2022/11/18 11:24:12;;;;;;;1.33;0.83;;;;;;;-141.59;100.00;61776.25;5081178;28;20204;-77
2022/11/18 11:26:51;;;;;;;0.70;0.67;;;;;;;-141.59;100.00;61776.25;5085870;28;20205;-78
2022/11/18 11:29:39;;;;;;;0.50;0.50;;;;;;;-141.59;100.00;61776.25;5080151;28;20257;-77
2022/11/18 11:32:19;;;;;;;0.60;0.60;;;;;;;-141.59;100.00;61776.25;5091321;28;20208;-79
2022/11/18 11:34:55;;;;;;;0.60;0.60;;;;;;;-141.59;100.00;61776.25;5080189;28;20257;-77
2022/11/18 11:37:29;;;;;;;0.70;0.60;;;;;;;-141.59;100.00;61776.25;5084342;28;20207;-77
2022/11/18 11:40:22;;;;;;;1.43;1.20;;;;;;;-141.59;100.00;61776.25;5100710;28;20330;-77
2022/11/18 11:43:06;;;;;;;0.70;0.70;;;;;;;-141.59;100.00;61776.25;5072893;28;20303;-77
2022/11/18 11:45:43;;;;;;;0.50;0.50;;;;;;;-141.59;100.00;61776.25;5092469;28;20213;-77
2022/11/18 11:48:32;;;;;;;1.03;0.73;;;;;;;-141.59;100.00;61776.25;5091007;28;20292;-79